Time;durP1;ratioP1;P1;durP2;ratioP2;P2;SDS_P1;SDS_P2;PMS_P1;PMS_P2;Temp;Humidity;BMP_temperature;BMP_pressure;BME280_temperature;BME280_humidity;BME280_pressure;Samples;Min_cycle;Max_cycle;Signal;HPM_P1;HPM_P2
2021/12/14 00:01:37;;;;;;;0.73;0.73;;;;;;;-145.06;0.00;60892.56;4714466;29;20482;-86
2021/12/14 00:04:29;;;;;;;1.00;0.90;;;;;;;-145.06;0.00;60892.56;4716824;29;20384;-87
2021/12/14 00:07:13;;;;;;;1.08;0.73;;;;;;;-145.06;0.00;60892.56;4719907;29;20024;-87
2021/12/14 00:10:01;;;;;;;1.00;0.77;;;;;;;-145.06;0.00;60892.56;4736745;29;20036;-88
2021/12/14 00:12:57;;;;;;;1.10;0.85;;;;;;;-145.06;0.00;60892.56;4718825;29;20035;-87
2021/12/14 00:15:36;;;;;;;0.63;0.60;;;;;;;-145.06;0.00;60892.56;4721273;29;20059;-88
2021/12/14 00:18:16;;;;;;;0.70;0.52;;;;;;;-145.06;0.00;60892.56;4718517;29;20054;-88
2021/12/14 00:21:03;;;;;;;1.10;0.75;;;;;;;-145.06;0.00;60892.56;4722367;29;20037;-86
2021/12/14 00:26:47;;;;;;;1.05;0.75;;;;;;;-145.06;0.00;60892.56;4728279;29;20029;-87
2021/12/14 00:29:32;;;;;;;1.02;0.70;;;;;;;-145.06;0.00;60892.56;4719809;29;20040;-87
2021/12/14 00:32:25;;;;;;;0.80;0.70;;;;;;;-145.06;0.00;60892.56;4715406;29;20040;-87
2021/12/14 00:35:13;;;;;;;0.70;0.60;;;;;;;-145.06;0.00;60892.56;4724407;29;20032;-88
2021/12/14 00:37:53;;;;;;;0.80;0.70;;;;;;;-145.06;0.00;60892.56;4730962;29;20511;-87
2021/12/14 00:40:37;;;;;;;1.20;0.85;;;;;;;-145.06;0.00;60892.56;4698577;29;20029;-86
2021/12/14 00:43:16;;;;;;;1.00;0.80;;;;;;;-145.06;0.00;60892.56;4706020;29;20037;-86
2021/12/14 00:45:58;;;;;;;1.00;0.90;;;;;;;-145.06;0.00;60892.56;4726057;29;20032;-86
2021/12/14 00:48:41;;;;;;;0.80;0.65;;;;;;;-145.06;0.00;60892.56;4733052;29;20032;-86
2021/12/14 00:51:26;;;;;;;0.75;0.70;;;;;;;-145.06;0.00;60892.56;4747739;29;20379;-87
2021/12/14 00:54:11;;;;;;;1.15;0.82;;;;;;;-145.06;0.00;60892.56;4732726;29;20028;-87
2021/12/14 00:56:51;;;;;;;1.08;0.88;;;;;;;-145.06;0.00;60892.56;4719438;29;20057;-87
2021/12/14 00:59:31;;;;;;;1.20;1.05;;;;;;;-145.06;0.00;60892.56;4732709;29;20047;-87
2021/12/14 01:02:16;;;;;;;1.40;1.20;;;;;;;-145.06;0.00;60892.56;4722643;29;20035;-87
2021/12/14 01:05:01;;;;;;;1.40;1.10;;;;;;;-145.06;0.00;60892.56;4739656;29;20060;-86
2021/12/14 01:07:41;;;;;;;1.58;1.17;;;;;;;-145.06;0.00;60892.56;4706869;29;20033;-87
2021/12/14 01:11:04;;;;;;;1.85;1.30;;;;;;;-145.06;0.00;60892.56;4725057;29;20040;-87
2021/12/14 01:13:54;;;;;;;1.73;1.10;;;;;;;-145.06;0.00;60892.56;4718490;29;20384;-87
2021/12/14 01:16:54;;;;;;;1.70;1.10;;;;;;;-145.06;0.00;60892.56;4716437;29;20024;-87
2021/12/14 01:19:36;;;;;;;2.00;1.35;;;;;;;-145.06;0.00;60892.56;4722246;29;20025;-86
2021/12/14 01:22:37;;;;;;;1.88;1.52;;;;;;;-145.06;0.00;60892.56;4732938;29;20044;-86
2021/12/14 01:25:22;;;;;;;1.90;1.35;;;;;;;-145.06;0.00;60892.56;4750835;29;20111;-88
2021/12/14 01:28:07;;;;;;;1.52;1.42;;;;;;;-145.06;0.00;60892.56;4744778;29;20618;-87
2021/12/14 01:31:08;;;;;;;1.40;1.25;;;;;;;-145.06;0.00;60892.56;4724881;29;20044;-87
2021/12/14 01:33:53;;;;;;;1.58;1.30;;;;;;;-145.06;0.00;60892.56;4724611;29;20032;-87
2021/12/14 01:36:45;;;;;;;1.10;0.90;;;;;;;-145.06;0.00;60892.56;4709285;29;20337;-87
2021/12/14 01:42:15;;;;;;;1.58;1.15;;;;;;;-145.06;0.00;60892.56;4742936;29;20035;-87
2021/12/14 01:45:05;;;;;;;1.60;1.40;;;;;;;9.55;0.00;60892.56;4734635;29;20111;-87
2021/12/14 01:47:58;;;;;;;1.77;1.33;;;;;;;-145.06;0.00;60892.56;4735831;29;20021;-87
2021/12/14 01:50:44;;;;;;;1.15;0.98;;;;;;;-145.06;0.00;60892.56;4716498;29;20124;-86
2021/12/14 01:53:24;;;;;;;1.38;1.27;;;;;;;-145.06;0.00;60892.56;4744716;29;20025;-86
2021/12/14 01:56:08;;;;;;;1.30;1.05;;;;;;;-145.06;0.00;60892.56;4738747;29;20236;-86
2021/12/14 01:58:52;;;;;;;1.33;1.02;;;;;;;-145.06;0.00;60892.56;4733335;29;20040;-86
2021/12/14 02:01:57;;;;;;;1.30;0.93;;;;;;;-145.06;0.00;60892.56;4723476;29;20115;-86
2021/12/14 02:04:31;;;;;;;1.70;1.27;;;;;;;-145.06;0.00;60892.56;4753167;29;20118;-87
2021/12/14 02:07:19;;;;;;;1.38;1.02;;;;;;;-145.06;0.00;60892.56;4748228;29;20044;-87
2021/12/14 02:10:08;;;;;;;1.02;0.82;;;;;;;-145.06;0.00;60892.56;4742774;29;20076;-87
2021/12/14 02:12:47;;;;;;;1.23;1.00;;;;;;;-145.06;0.00;60892.56;4732908;29;20468;-87
2021/12/14 02:15:44;;;;;;;1.40;1.23;;;;;;;-145.06;0.00;60892.56;4725928;29;20116;-87
2021/12/14 02:18:26;;;;;;;1.60;1.30;;;;;;;-145.06;0.00;60892.56;4728367;29;20040;-86
2021/12/14 02:21:12;;;;;;;1.35;0.95;;;;;;;-145.06;0.00;60892.56;4739154;29;20040;-88
2021/12/14 02:23:55;;;;;;;1.50;1.30;;;;;;;-145.06;0.00;60892.56;4725460;29;20036;-87
2021/12/14 02:26:38;;;;;;;1.63;1.10;;;;;;;-145.06;0.00;60892.56;4730054;29;20068;-88
2021/12/14 02:29:27;;;;;;;1.80;1.40;;;;;;;-145.06;0.00;60892.56;4746094;29;20048;-87
2021/12/14 02:32:11;;;;;;;1.23;1.10;;;;;;;-145.06;0.00;60892.56;4734684;29;20040;-87
2021/12/14 02:34:55;;;;;;;1.40;1.05;;;;;;;-145.06;0.00;60892.56;4739531;29;20045;-87
2021/12/14 02:37:45;;;;;;;1.48;1.20;;;;;;;-145.06;0.00;60892.56;4741603;29;20032;-86
2021/12/14 02:40:53;;;;;;;2.45;1.77;;;;;;;-145.06;0.00;60892.56;4717525;29;20045;-87
2021/12/14 02:43:30;;;;;;;1.98;1.50;;;;;;;-145.06;0.00;60892.56;4725972;29;20029;-87
2021/12/14 02:46:15;;;;;;;3.53;1.77;;;;;;;-145.06;0.00;60892.56;4732677;29;20119;-86
2021/12/14 02:49:00;;;;;;;3.30;2.05;;;;;;;-145.06;0.00;60892.56;4740800;29;20041;-87
2021/12/14 02:51:45;;;;;;;2.88;2.13;;;;;;;-145.06;0.00;60892.56;4753909;29;20016;-88
2021/12/14 02:54:29;;;;;;;2.55;1.90;;;;;;;-145.06;0.00;60892.56;4737079;29;20384;-86
2021/12/14 02:57:15;;;;;;;3.08;2.22;;;;;;;-145.06;0.00;60892.56;4729054;29;20036;-86
2021/12/14 02:59:55;;;;;;;3.58;2.40;;;;;;;-145.06;0.00;60892.56;4723352;29;20032;-87
2021/12/14 03:02:35;;;;;;;3.80;2.85;;;;;;;-145.06;0.00;60892.56;4735158;29;20092;-86
2021/12/14 03:05:24;;;;;;;5.15;3.10;;;;;;;-145.06;0.00;60892.56;4711997;29;20056;-87
2021/12/14 03:08:14;;;;;;;5.00;3.53;;;;;;;-145.06;0.00;60892.56;4732162;29;20812;-87
2021/12/14 03:11:10;;;;;;;5.97;3.85;;;;;;;-145.06;0.00;60892.56;4731939;29;20024;-86
2021/12/14 03:13:52;;;;;;;4.63;3.30;;;;;;;-145.06;0.00;60892.56;4738456;29;20040;-88
2021/12/14 03:16:35;;;;;;;4.18;3.00;;;;;;;-145.06;0.00;60892.56;4730419;29;20690;-87
2021/12/14 03:19:14;;;;;;;4.55;3.03;;;;;;;-145.06;0.00;60892.56;4739850;29;20033;-87
2021/12/14 03:21:53;;;;;;;5.50;3.28;;;;;;;-145.06;0.00;60892.56;4732526;29;20032;-87
2021/12/14 03:24:32;;;;;;;5.03;3.03;;;;;;;-145.06;0.00;60892.56;4718389;29;20037;-87
2021/12/14 03:27:11;;;;;;;4.13;2.60;;;;;;;-145.06;0.00;60892.56;4732820;29;20079;-86
2021/12/14 03:29:50;;;;;;;4.10;2.92;;;;;;;-145.06;0.00;60892.56;4732050;29;20032;-87
2021/12/14 03:32:33;;;;;;;5.23;3.13;;;;;;;-145.06;0.00;60892.56;4716629;29;20044;-87
2021/12/14 03:35:13;;;;;;;3.88;2.80;;;;;;;-145.06;0.00;60892.56;4734755;29;20376;-87
2021/12/14 03:38:07;;;;;;;5.13;2.92;;;;;;;-145.06;0.00;60892.56;4729523;29;20064;-86
2021/12/14 03:41:06;;;;;;;4.03;2.65;;;;;;;-145.06;0.00;60892.56;4723456;29;20056;-87
2021/12/14 03:43:53;;;;;;;3.60;2.65;;;;;;;-145.06;0.00;60892.56;4718535;29;20037;-87
2021/12/14 03:46:41;;;;;;;3.58;2.33;;;;;;;-145.06;0.00;60892.56;4729207;29;20065;-86
2021/12/14 03:49:23;;;;;;;3.80;2.45;;;;;;;-145.06;0.00;60892.56;4726810;29;20028;-88
2021/12/14 03:52:07;;;;;;;5.07;3.35;;;;;;;-145.06;0.00;60892.56;4722649;29;20060;-87
2021/12/14 03:54:46;;;;;;;5.35;3.53;;;;;;;-145.06;0.00;60892.56;4717181;29;20368;-87
2021/12/14 03:57:25;;;;;;;5.23;3.30;;;;;;;-145.06;0.00;60892.56;4733558;29;20036;-87
2021/12/14 04:00:08;;;;;;;6.30;4.17;;;;;;;-145.06;0.00;60892.56;4751020;29;20040;-88
2021/12/14 04:02:48;;;;;;;6.20;3.70;;;;;;;-145.06;0.00;60892.56;4726526;29;20778;-87
2021/12/14 04:05:27;;;;;;;6.75;4.43;;;;;;;-145.06;0.00;60892.56;4716306;29;20040;-88
2021/12/14 04:08:11;;;;;;;5.43;3.67;;;;;;;-145.06;0.00;60892.56;4735861;29;20037;-88
2021/12/14 04:10:53;;;;;;;5.45;3.72;;;;;;;-145.06;0.00;60892.56;4729554;29;20036;-87
2021/12/14 04:13:39;;;;;;;6.38;4.38;;;;;;;-145.06;0.00;60892.56;4738227;29;20040;-87
2021/12/14 04:16:22;;;;;;;6.43;4.03;;;;;;;-145.06;0.00;60892.56;4734462;29;20036;-86
2021/12/14 04:19:11;;;;;;;6.93;4.22;;;;;;;-145.06;0.00;60892.56;4735149;29;20507;-86
2021/12/14 04:21:52;;;;;;;5.03;3.35;;;;;;;-145.06;0.00;60892.56;4727819;29;20475;-88
2021/12/14 04:24:34;;;;;;;3.90;2.67;;;;;;;-145.06;0.00;60892.56;4717012;29;20044;-87
2021/12/14 04:27:18;;;;;;;5.22;3.30;;;;;;;-145.06;0.00;60892.56;4738110;29;20032;-86
2021/12/14 04:30:03;;;;;;;4.90;3.08;;;;;;;10.68;0.00;60892.56;4718486;29;20693;-87
2021/12/14 04:32:56;;;;;;;5.70;3.67;;;;;;;-145.06;0.00;60892.56;4733097;29;20029;-87
2021/12/14 04:35:38;;;;;;;5.50;3.25;;;;;;;-145.06;0.00;60892.56;4732735;29;20032;-88
2021/12/14 04:38:25;;;;;;;5.25;2.97;;;;;;;-145.06;0.00;60892.56;4734481;29;20080;-87
2021/12/14 04:53:11;;;;;;;4.10;2.55;;;;;;;-145.06;0.00;60892.56;4740370;29;20032;-86
2021/12/14 04:55:54;;;;;;;2.97;2.28;;;;;;;-145.06;0.00;60892.56;4722874;29;20040;-87
2021/12/14 04:58:36;;;;;;;3.50;2.15;;;;;;;-145.06;0.00;60892.56;4726910;29;20032;-86
2021/12/14 05:01:16;;;;;;;3.03;2.13;;;;;;;-145.06;0.00;60892.56;4716812;29;20041;-87
2021/12/14 05:04:03;;;;;;;5.05;2.72;;;;;;;-145.06;0.00;60892.56;4708606;29;20064;-87
2021/12/14 05:06:49;;;;;;;4.75;2.53;;;;;;;-145.06;0.00;60892.56;4719977;29;20036;-86
2021/12/14 05:09:33;;;;;;;4.22;2.55;;;;;;;-145.06;0.00;60892.56;4724179;29;20032;-87
2021/12/14 05:12:17;;;;;;;5.45;2.78;;;;;;;-145.06;0.00;60892.56;4727488;29;20040;-86
2021/12/14 05:15:00;;;;;;;3.35;2.33;;;;;;;-145.06;0.00;60892.56;4729793;29;20044;-87
2021/12/14 05:17:44;;;;;;;3.50;2.45;;;;;;;-145.06;0.00;60892.56;4737005;29;20043;-87
2021/12/14 05:20:23;;;;;;;3.63;2.45;;;;;;;-145.06;0.00;60892.56;4726839;29;20399;-85
2021/12/14 05:23:04;;;;;;;4.25;2.35;;;;;;;-145.06;0.00;60892.56;4728840;29;20032;-86
2021/12/14 05:25:43;;;;;;;3.90;2.70;;;;;;;-145.06;0.00;60892.56;4732152;29;20056;-86
2021/12/14 05:28:23;;;;;;;4.13;2.47;;;;;;;-145.06;0.00;60892.56;4715090;29;20041;-86
2021/12/14 05:31:05;;;;;;;4.03;2.38;;;;;;;-145.06;0.00;60892.56;4740197;29;20269;-86
2021/12/14 05:33:45;;;;;;;3.55;2.63;;;;;;;-145.06;0.00;60892.56;4751076;29;20056;-87
2021/12/14 05:36:25;;;;;;;5.63;2.88;;;;;;;-145.06;0.00;60892.56;4731611;29;20029;-86
2021/12/14 05:39:19;;;;;;;4.30;2.83;;;;;;;-145.06;0.00;60892.56;4722612;29;20040;-86
2021/12/14 05:44:46;;;;;;;3.78;2.45;;;;;;;-145.06;0.00;60892.56;4731228;29;20544;-86
2021/12/14 05:47:25;;;;;;;4.85;2.60;;;;;;;-145.06;0.00;60892.56;4715699;29;20032;-86
2021/12/14 05:50:05;;;;;;;4.47;2.72;;;;;;;21.08;0.00;60892.56;4727418;29;20032;-86
2021/12/14 05:52:44;;;;;;;4.80;2.70;;;;;;;-145.06;0.00;60892.56;4708883;29;20032;-86
2021/12/14 05:55:28;;;;;;;3.58;2.55;;;;;;;-145.06;0.00;60892.56;4735259;29;20044;-86
2021/12/14 05:58:17;;;;;;;3.65;2.60;;;;;;;-145.06;0.00;60892.56;4717411;29;20049;-86
2021/12/14 06:01:00;;;;;;;3.75;2.25;;;;;;;-145.06;0.00;60892.56;4728750;29;20044;-86
2021/12/14 06:03:45;;;;;;;3.42;2.35;;;;;;;-145.06;0.00;60892.56;4726438;29;20028;-86
2021/12/14 06:06:29;;;;;;;2.80;2.13;;;;;;;-145.06;0.00;60892.56;4723083;29;20029;-86
2021/12/14 06:09:13;;;;;;;3.05;2.10;;;;;;;-145.06;0.00;60892.56;4715175;29;20384;-86
2021/12/14 06:11:56;;;;;;;3.58;2.20;;;;;;;-145.06;0.00;60892.56;4733291;29;20037;-87
2021/12/14 06:14:42;;;;;;;2.97;2.15;;;;;;;-145.06;0.00;60892.56;4724908;29;20063;-86
2021/12/14 06:17:29;;;;;;;2.88;2.10;;;;;;;-145.06;0.00;60892.56;4736774;29;20044;-86
2021/12/14 06:20:18;;;;;;;2.40;1.73;;;;;;;-145.06;0.00;60892.56;4724028;29;20032;-86
2021/12/14 06:22:56;;;;;;;2.17;1.70;;;;;;;-145.06;0.00;60892.56;4716938;29;20395;-87
2021/12/14 06:25:36;;;;;;;2.53;1.80;;;;;;;-145.06;0.00;60892.56;4732962;29;20037;-87
2021/12/14 06:28:24;;;;;;;2.95;1.80;;;;;;;-145.06;0.00;60892.56;4729917;29;20036;-87
2021/12/14 06:31:06;;;;;;;1.95;1.30;;;;;;;-145.06;0.00;60892.56;4731901;29;20044;-86
2021/12/14 06:33:45;;;;;;;2.45;1.80;;;;;;;-145.06;0.00;60892.56;4717973;29;20032;-86
2021/12/14 06:37:19;;;;;;;2.40;2.00;;;;;;;-145.06;0.00;60892.56;4724375;29;20036;-86
2021/12/14 06:40:30;;;;;;;2.22;1.80;;;;;;;-145.06;0.00;60892.56;4686696;29;20048;-86
2021/12/14 06:43:20;;;;;;;1.95;1.42;;;;;;;-145.06;0.00;60892.56;4714197;29;20490;-87
2021/12/14 06:46:11;;;;;;;2.30;1.67;;;;;;;-145.06;0.00;60892.56;4728498;29;20671;-87
2021/12/14 06:48:59;;;;;;;2.45;1.75;;;;;;;-145.06;0.00;60892.56;4727023;29;20028;-86
2021/12/14 06:51:46;;;;;;;3.05;1.83;;;;;;;-145.06;0.00;60892.56;4722224;29;20036;-86
2021/12/14 06:54:28;;;;;;;2.50;1.88;;;;;;;-145.06;0.00;60892.56;4716182;29;20021;-87
2021/12/14 06:57:07;;;;;;;2.50;1.60;;;;;;;-145.06;0.00;60892.56;4732175;29;20036;-86
2021/12/14 06:59:47;;;;;;;2.20;1.77;;;;;;;-145.06;0.00;60892.56;4720540;29;20032;-86
2021/12/14 07:02:26;;;;;;;2.90;1.88;;;;;;;-145.06;0.00;60892.56;4714681;29;20272;-86
2021/12/14 07:05:06;;;;;;;1.98;1.73;;;;;;;-145.06;0.00;60892.56;4727930;29;20044;-87
2021/12/14 07:07:47;;;;;;;2.03;1.63;;;;;;;-145.06;0.00;60892.56;4715000;29;20024;-86
2021/12/14 07:10:35;;;;;;;2.53;1.80;;;;;;;-145.06;0.00;60892.56;4729346;29;20055;-86
2021/12/14 07:13:37;;;;;;;2.95;1.85;;;;;;;-145.06;0.00;60892.56;4721972;29;20060;-85
2021/12/14 07:16:27;;;;;;;2.05;1.48;;;;;;;-145.06;0.00;60892.56;4728930;29;20028;-85
2021/12/14 07:19:06;;;;;;;1.77;1.50;;;;;;;-145.06;0.00;60892.56;4719238;29;20028;-87
2021/12/14 07:21:48;;;;;;;3.03;1.63;;;;;;;-145.06;0.00;60892.56;4742452;29;20072;-85
2021/12/14 07:24:31;;;;;;;1.92;1.33;;;;;;;-145.06;0.00;60892.56;4732361;29;20028;-86
2021/12/14 07:27:20;;;;;;;2.33;1.60;;;;;;;-145.06;0.00;60892.56;4726410;29;20486;-86
2021/12/14 07:30:17;;;;;;;2.55;1.77;;;;;;;-145.06;0.00;60892.56;4722782;29;20032;-86
2021/12/14 07:33:12;;;;;;;1.63;1.35;;;;;;;-145.06;0.00;60892.56;4724736;29;20032;-87
2021/12/14 07:36:03;;;;;;;2.63;1.63;;;;;;;-145.06;0.00;60892.56;4724206;29;20032;-86
2021/12/14 07:38:53;;;;;;;1.92;1.50;;;;;;;-145.06;0.00;60892.56;4734439;29;20075;-86
2021/12/14 07:41:54;;;;;;;2.38;1.80;;;;;;;-145.06;0.00;60892.56;4735421;29;20032;-86
2021/12/14 07:44:37;;;;;;;2.20;1.77;;;;;;;-145.06;0.00;60892.56;4722027;29;20374;-86
2021/12/14 07:47:19;;;;;;;3.15;1.98;;;;;;;-145.06;0.00;60892.56;4735171;29;20356;-86
2021/12/14 07:49:59;;;;;;;1.95;1.42;;;;;;;-145.06;0.00;60892.56;4731532;29;20044;-87
2021/12/14 07:52:38;;;;;;;3.22;2.00;;;;;;;-145.06;0.00;60892.56;4725971;29;20494;-87
2021/12/14 07:55:19;;;;;;;2.28;2.00;;;;;;;-145.06;0.00;60892.56;4739830;29;20044;-86
2021/12/14 07:58:02;;;;;;;3.20;2.03;;;;;;;9.38;0.00;60892.56;4733055;29;20115;-86
2021/12/14 08:00:42;;;;;;;3.13;1.80;;;;;;;-145.06;0.00;60892.56;4709762;29;20032;-87
2021/12/14 08:03:33;;;;;;;3.40;2.38;;;;;;;-145.06;0.00;60892.56;4707774;29;20029;-86
2021/12/14 08:06:14;;;;;;;2.30;1.90;;;;;;;-145.06;0.00;60892.56;4718403;29;20028;-87
2021/12/14 08:08:55;;;;;;;2.42;1.80;;;;;;;-145.06;0.00;60892.56;4727104;29;20372;-87
2021/12/14 08:14:24;;;;;;;2.05;1.52;;;;;;;-145.06;0.00;60892.56;4726381;29;20139;-86
2021/12/14 08:17:09;;;;;;;2.28;1.50;;;;;;;-145.06;0.00;60892.56;4733527;29;20040;-86
2021/12/14 08:19:52;;;;;;;1.83;1.45;;;;;;;-145.06;0.00;60892.56;4700939;29;20471;-86
2021/12/14 08:22:34;;;;;;;1.75;1.45;;;;;;;-145.06;0.00;60892.56;4726502;29;20032;-85
2021/12/14 08:25:21;;;;;;;1.83;1.30;;;;;;;-145.06;0.00;60892.56;4720636;29;20025;-87
2021/12/14 08:28:10;;;;;;;2.10;1.50;;;;;;;-145.06;0.00;60892.56;4715009;29;20483;-86
2021/12/14 08:31:03;;;;;;;2.40;1.65;;;;;;;-145.06;0.00;60892.56;4718200;29;20027;-86
2021/12/14 08:33:52;;;;;;;1.55;1.20;;;;;;;-145.06;0.00;60892.56;4721898;29;20036;-87
2021/12/14 08:36:44;;;;;;;1.40;1.17;;;;;;;-145.06;0.00;60892.56;4731055;29;20467;-86
2021/12/14 08:39:27;;;;;;;1.38;1.08;;;;;;;-145.06;0.00;60892.56;4730498;29;20036;-87
2021/12/14 08:42:16;;;;;;;2.22;1.55;;;;;;;-145.06;0.00;60892.56;4741465;29;20040;-87
2021/12/14 08:45:24;;;;;;;1.83;1.30;;;;;;;-145.06;0.00;60892.56;4713201;29;20028;-86
2021/12/14 08:48:02;;;;;;;2.17;1.60;;;;;;;-145.06;0.00;60892.56;4726851;29;20043;-87
2021/12/14 08:50:54;;;;;;;2.57;2.07;;;;;;;-145.06;0.00;60892.56;4752827;29;20028;-87
2021/12/14 08:53:35;;;;;;;2.28;1.80;;;;;;;-145.06;0.00;60892.56;4756591;29;20017;-87
2021/12/14 08:56:16;;;;;;;1.67;1.35;;;;;;;-145.06;0.00;60892.56;4739987;29;20040;-87
2021/12/14 08:58:55;;;;;;;2.13;1.67;;;;;;;21.08;0.00;60892.56;4727743;29;20375;-86
2021/12/14 09:01:35;;;;;;;2.65;1.98;;;;;;;8.74;0.00;60892.56;4732885;29;20629;-87
2021/12/14 09:04:20;;;;;;;2.42;1.90;;;;;;;187.52;0.00;60892.56;4739894;29;20474;-87
2021/12/14 09:07:07;;;;;;;2.10;1.60;;;;;;;-145.06;0.00;60892.56;4711798;29;20364;-86
2021/12/14 09:09:47;;;;;;;2.67;2.13;;;;;;;-145.06;0.00;60892.56;4722374;29;20063;-86
2021/12/14 09:12:33;;;;;;;2.15;1.50;;;;;;;-145.06;0.00;60892.56;4719234;29;20067;-87
2021/12/14 09:15:24;;;;;;;2.90;2.10;;;;;;;-145.06;0.00;60892.56;4717598;29;20035;-86
2021/12/14 09:18:07;;;;;;;2.42;2.10;;;;;;;-145.06;0.00;60892.56;4739858;29;20510;-86
2021/12/14 09:20:55;;;;;;;3.20;2.08;;;;;;;8.81;0.00;60892.56;4716181;29;20107;-87
2021/12/14 09:23:38;;;;;;;3.08;2.03;;;;;;;-145.06;0.00;60892.56;4726404;29;20040;-86
2021/12/14 09:26:23;;;;;;;4.15;2.85;;;;;;;8.84;0.00;60892.56;4730503;29;20032;-87
2021/12/14 09:29:08;;;;;;;2.70;1.98;;;;;;;-145.06;0.00;60892.56;4729227;29;20036;-86
2021/12/14 09:31:53;;;;;;;3.72;2.58;;;;;;;-145.06;0.00;60892.56;4724244;29;20162;-86
2021/12/14 09:34:39;;;;;;;2.75;2.05;;;;;;;-145.06;0.00;60892.56;4713642;29;20021;-87
2021/12/14 09:37:19;;;;;;;3.40;2.38;;;;;;;-145.06;0.00;60892.56;4722328;29;20036;-87
2021/12/14 09:40:05;;;;;;;2.83;2.17;;;;;;;8.85;0.00;60892.56;4709774;29;20108;-86
2021/12/14 09:42:44;;;;;;;2.90;2.15;;;;;;;-145.06;0.00;60892.56;4717538;29;20623;-87
2021/12/14 09:45:27;;;;;;;2.73;2.03;;;;;;;8.89;0.00;60892.56;4717936;29;20029;-86
2021/12/14 09:48:06;;;;;;;2.28;1.75;;;;;;;-145.06;0.00;60892.56;4741113;29;20032;-86
2021/12/14 09:50:50;;;;;;;2.45;1.90;;;;;;;-145.06;0.00;60892.56;4740456;29;20359;-87
2021/12/14 09:53:29;;;;;;;2.67;1.90;;;;;;;8.98;0.00;60892.56;4722878;29;20372;-86
2021/12/14 09:56:11;;;;;;;2.90;1.75;;;;;;;-145.06;0.00;60892.56;4726353;29;20036;-86
2021/12/14 09:58:58;;;;;;;2.78;1.85;;;;;;;-145.06;0.00;60892.56;4739687;29;20027;-87
2021/12/14 10:01:47;;;;;;;2.40;1.90;;;;;;;8.92;0.00;60892.56;4725489;29;20021;-86
2021/12/14 10:04:35;;;;;;;2.60;1.92;;;;;;;-145.06;0.00;60892.56;4730019;29;20033;-86
2021/12/14 10:07:17;;;;;;;3.63;1.73;;;;;;;-145.06;0.00;60892.56;4728698;29;20144;-87
2021/12/14 10:09:59;;;;;;;2.00;1.70;;;;;;;-145.06;0.00;60892.56;4714840;29;20103;-87
2021/12/14 10:12:49;;;;;;;1.95;1.58;;;;;;;8.97;0.00;60892.56;4722111;29;20103;-87
2021/12/14 10:15:47;;;;;;;2.00;1.65;;;;;;;9.00;0.00;60892.56;4722960;29;20064;-87
2021/12/14 10:18:39;;;;;;;2.63;1.95;;;;;;;-145.06;0.00;60892.56;4732655;29;20496;-87
2021/12/14 10:21:31;;;;;;;2.30;1.90;;;;;;;-145.06;0.00;60892.56;4727679;29;20036;-86
2021/12/14 10:24:14;;;;;;;2.30;1.92;;;;;;;9.02;0.00;60892.56;4736308;29;20588;-87
2021/12/14 10:26:58;;;;;;;2.35;1.83;;;;;;;-145.06;0.00;60892.56;4742127;29;20482;-87
2021/12/14 10:29:45;;;;;;;2.60;1.90;;;;;;;9.04;0.00;60892.56;4741724;29;20115;-88
2021/12/14 10:32:29;;;;;;;2.53;1.88;;;;;;;9.14;0.00;60892.56;4716981;29;20020;-86
2021/12/14 10:35:14;;;;;;;2.40;1.77;;;;;;;-145.06;0.00;60892.56;4731594;29;20491;-87
2021/12/14 10:38:10;;;;;;;2.03;1.60;;;;;;;-145.06;0.00;60892.56;4731213;29;20025;-87
2021/12/14 10:43:55;;;;;;;1.80;1.55;;;;;;;-145.06;0.00;60892.56;4736779;29;20032;-87
2021/12/14 10:46:39;;;;;;;2.05;1.55;;;;;;;9.22;0.00;60892.56;4719796;29;20033;-88
2021/12/14 10:49:22;;;;;;;2.78;2.10;;;;;;;-145.06;0.00;60892.56;4723368;29;20032;-87
2021/12/14 10:52:07;;;;;;;2.00;1.52;;;;;;;-145.06;0.00;60892.56;4725387;29;20028;-87
2021/12/14 10:54:50;;;;;;;2.45;1.77;;;;;;;-145.06;0.00;60892.56;4701159;29;20033;-87
2021/12/14 10:57:31;;;;;;;2.75;2.00;;;;;;;-145.06;0.00;60892.56;4727418;29;20024;-86
2021/12/14 11:00:33;;;;;;;2.35;1.52;;;;;;;-145.06;0.00;60892.56;4727296;29;20039;-87
2021/12/14 11:03:17;;;;;;;2.35;1.60;;;;;;;-145.06;0.00;60892.56;4719449;29;20044;-88
2021/12/14 11:06:00;;;;;;;2.25;1.70;;;;;;;-145.06;0.00;60892.56;4718465;29;20028;-87
2021/12/14 11:12:00;;;;;;;2.70;1.60;;;;;;;-145.06;0.00;60892.56;4704544;29;20695;-87
2021/12/14 11:14:39;;;;;;;1.73;1.42;;;;;;;-145.06;0.00;60892.56;4727158;29;20040;-86
2021/12/14 11:20:32;;;;;;;2.38;1.60;;;;;;;-145.06;0.00;60892.56;4739495;29;20040;-87
2021/12/14 11:23:30;;;;;;;2.38;1.48;;;;;;;-145.06;0.00;60892.56;4736485;29;20028;-87
2021/12/14 11:26:18;;;;;;;1.88;1.60;;;;;;;-145.06;0.00;60892.56;4735762;29;20107;-87
2021/12/14 11:29:02;;;;;;;2.55;1.75;;;;;;;-145.06;0.00;60892.56;4744118;29;20032;-86
2021/12/14 11:31:49;;;;;;;2.63;1.85;;;;;;;-145.06;0.00;60892.56;4722380;29;20032;-87
2021/12/14 11:34:37;;;;;;;2.22;1.90;;;;;;;-145.06;0.00;60892.56;4732331;29;20060;-87
2021/12/14 11:37:22;;;;;;;3.60;2.20;;;;;;;-145.06;0.00;60892.56;4727807;29;20033;-87
2021/12/14 11:40:08;;;;;;;2.13;1.70;;;;;;;-145.06;0.00;60892.56;4722668;29;20111;-87
2021/12/14 11:42:47;;;;;;;2.50;1.70;;;;;;;-145.06;0.00;60892.56;4726159;29;20029;-87
2021/12/14 11:45:26;;;;;;;3.20;2.20;;;;;;;-145.06;0.00;60892.56;4739207;29;20110;-87
2021/12/14 11:48:06;;;;;;;3.10;2.10;;;;;;;-145.06;0.00;60892.56;4721534;29;20107;-87
2021/12/14 11:50:47;;;;;;;2.90;2.20;;;;;;;-145.06;0.00;60892.56;4724113;29;20036;-87
2021/12/14 11:53:26;;;;;;;4.00;2.63;;;;;;;-145.06;0.00;60892.56;4722793;29;20470;-88
2021/12/14 11:56:16;;;;;;;4.47;2.28;;;;;;;-145.06;0.00;60892.56;4727199;29;20508;-88
2021/12/14 11:59:00;;;;;;;2.72;2.03;;;;;;;-145.06;0.00;60892.56;4720582;29;20032;-87
2021/12/14 12:01:53;;;;;;;2.45;2.10;;;;;;;-145.06;0.00;60892.56;4735316;29;20028;-87
2021/12/14 12:04:36;;;;;;;3.13;2.15;;;;;;;-145.06;0.00;60892.56;4731503;29;20024;-88
2021/12/14 12:09:57;;;;;;;3.80;2.65;;;;;;;-145.06;0.00;60892.56;4740847;29;20012;-87
2021/12/14 12:12:39;;;;;;;4.00;2.70;;;;;;;-145.06;0.00;60892.56;4738359;29;20033;-87
2021/12/14 12:15:23;;;;;;;3.15;2.42;;;;;;;-145.06;0.00;60892.56;4735663;29;20124;-88
2021/12/14 12:18:02;;;;;;;3.03;2.28;;;;;;;-145.06;0.00;60892.56;4737274;29;20118;-86
2021/12/14 12:20:48;;;;;;;3.55;2.60;;;;;;;-145.06;0.00;60892.56;4729350;29;20036;-88
2021/12/14 12:23:27;;;;;;;2.50;1.90;;;;;;;-145.06;0.00;60892.56;4726645;29;20032;-88
2021/12/14 12:26:09;;;;;;;;;;;;;;;-145.06;0.00;60892.56;4709402;29;20029;-88
2021/12/14 12:28:50;;;;;;;3.28;2.05;;;;;;;-145.06;0.00;60892.56;4744629;29;19958;-88
2021/12/14 12:31:35;;;;;;;3.22;2.22;;;;;;;-145.06;0.00;60892.56;4725729;29;20080;-87
2021/12/14 12:34:13;;;;;;;3.20;2.22;;;;;;;-145.06;0.00;60892.56;4715574;29;20388;-87
2021/12/14 12:36:56;;;;;;;5.07;3.15;;;;;;;-145.06;0.00;60892.56;4728593;29;20064;-87
2021/12/14 12:39:35;;;;;;;4.45;3.25;;;;;;;-145.06;0.00;60892.56;4712319;29;20041;-87
2021/12/14 12:42:22;;;;;;;5.23;3.40;;;;;;;-145.06;0.00;60892.56;4708075;29;20040;-88
2021/12/14 12:45:05;;;;;;;4.50;3.20;;;;;;;-145.06;0.00;60892.56;4726286;29;20273;-88
2021/12/14 12:47:50;;;;;;;4.40;3.30;;;;;;;-145.06;0.00;60892.56;4729853;29;20056;-87
2021/12/14 12:50:29;;;;;;;5.15;3.00;;;;;;;-145.06;0.00;60892.56;4727222;29;20036;-87
2021/12/14 12:53:22;;;;;;;3.73;2.63;;;;;;;10.03;0.00;60892.56;4709754;29;20435;-88
2021/12/14 12:56:08;;;;;;;2.83;2.30;;;;;;;-145.06;0.00;60892.56;4715622;29;20277;-88
2021/12/14 12:58:50;;;;;;;4.13;2.75;;;;;;;-145.06;0.00;60892.56;4712575;29;20036;-87
2021/12/14 13:01:32;;;;;;;2.72;2.25;;;;;;;-145.06;0.00;60892.56;4717364;29;20024;-87
2021/12/14 13:04:11;;;;;;;2.85;2.28;;;;;;;-145.06;0.00;60892.56;4713842;29;20115;-88
2021/12/14 13:07:04;;;;;;;3.42;2.38;;;;;;;-145.06;0.00;60892.56;4713279;29;20115;-87
2021/12/14 13:10:00;;;;;;;3.95;2.70;;;;;;;-145.06;0.00;60892.56;4734883;29;20032;-88
2021/12/14 13:12:48;;;;;;;3.40;2.38;;;;;;;-145.06;0.00;60892.56;4697267;29;20485;-88
2021/12/14 13:15:38;;;;;;;3.35;2.22;;;;;;;-145.06;0.00;60892.56;4715310;29;20024;-89
2021/12/14 13:18:28;;;;;;;2.83;2.15;;;;;;;10.08;0.00;60892.56;4725083;29;20512;-88
2021/12/14 13:21:51;;;;;;;3.55;2.53;;;;;;;-145.06;0.00;60892.56;4728218;29;20072;-86
2021/12/14 13:24:41;;;;;;;2.33;2.03;;;;;;;-145.06;0.00;60892.56;4712207;29;20029;-88
2021/12/14 13:27:22;;;;;;;3.03;2.38;;;;;;;-145.06;0.00;60892.56;4749674;29;20032;-88